Time;durP1;ratioP1;P1;durP2;ratioP2;P2;SDS_P1;SDS_P2;PMS_P1;PMS_P2;Temp;Humidity;BMP_temperature;BMP_pressure;BME280_temperature;BME280_humidity;BME280_pressure;Samples;Min_cycle;Max_cycle;Signal;HPM_P1;HPM_P2
2023/01/23 00:00:56;;;;;;;9.02;6.18;;;;;;;4.65;78.85;94259.84;4995815;28;20461;-77
2023/01/23 00:03:21;;;;;;;6.97;4.85;;;;;;;4.60;78.78;94241.44;4992719;28;20144;-76
2023/01/23 00:05:58;;;;;;;6.93;5.25;;;;;;;4.70;78.96;94254.59;4998890;28;20943;-76
2023/01/23 00:08:23;;;;;;;6.30;4.82;;;;;;;4.53;79.30;94240.91;5000364;28;20038;-77
2023/01/23 00:10:48;;;;;;;7.00;5.28;;;;;;;4.78;78.94;94254.06;4997705;28;20041;-76
2023/01/23 00:13:16;;;;;;;7.28;5.60;;;;;;;4.77;78.55;94257.75;5001548;28;20041;-76
2023/01/23 00:15:41;;;;;;;5.75;4.43;;;;;;;4.56;78.98;94246.44;4970855;28;20033;-76
2023/01/23 00:18:07;;;;;;;10.38;6.00;;;;;;;4.67;79.11;94252.50;5002647;28;20037;-76
2023/01/23 00:20:32;;;;;;;11.20;5.68;;;;;;;4.81;79.00;94255.38;4997988;28;20655;-76
2023/01/23 00:22:57;;;;;;;8.63;5.82;;;;;;;4.65;79.35;94234.31;4998814;28;20096;-76
2023/01/23 00:25:23;;;;;;;11.10;5.55;;;;;;;4.64;79.87;94251.19;4998597;28;20045;-75
2023/01/23 00:27:48;;;;;;;8.48;6.13;;;;;;;4.50;80.31;94233.56;5000612;28;20021;-77
2023/01/23 00:30:14;;;;;;;10.90;6.78;;;;;;;4.74;80.67;94260.13;4998347;28;20026;-76
2023/01/23 00:32:40;;;;;;;10.93;6.65;;;;;;;4.61;81.12;94251.69;4999464;28;20092;-76
2023/01/23 00:35:06;;;;;;;11.95;6.70;;;;;;;4.60;81.07;94267.78;4997177;28;20601;-76
2023/01/23 00:37:31;;;;;;;9.40;6.55;;;;;;;4.22;81.02;94204.00;4998300;28;20576;-75
2023/01/23 00:39:57;;;;;;;7.75;6.03;;;;;;;4.79;80.70;94268.03;4999888;28;20030;-76
2023/01/23 00:42:22;;;;;;;9.35;7.43;;;;;;;4.74;80.39;94266.19;4999746;28;20676;-75
2023/01/23 00:44:47;;;;;;;9.70;5.78;;;;;;;4.63;80.15;94273.31;4997672;28;20069;-77
2023/01/23 00:47:13;;;;;;;9.15;5.72;;;;;;;4.49;79.96;94248.56;4992345;28;20984;-75
2023/01/23 00:49:38;;;;;;;9.57;5.68;;;;;;;4.70;79.16;94279.09;4993370;28;20042;-75
2023/01/23 00:52:04;;;;;;;8.68;5.28;;;;;;;4.55;79.74;94273.81;4994699;28;20640;-76
2023/01/23 00:54:29;;;;;;;10.35;6.25;;;;;;;4.52;80.10;94261.19;4995924;28;20017;-76
2023/01/23 00:56:56;;;;;;;8.57;5.90;;;;;;;4.46;80.13;94258.81;4995702;28;20084;-76
2023/01/23 00:59:21;;;;;;;7.35;5.82;;;;;;;4.56;80.06;94271.97;4994850;28;20560;-76
2023/01/23 01:01:47;;;;;;;5.97;5.32;;;;;;;4.49;80.00;94274.09;4996250;28;20096;-75
2023/01/23 01:04:12;;;;;;;7.95;5.28;;;;;;;4.36;80.57;94277.25;4998469;28;20038;-76
2023/01/23 01:06:38;;;;;;;7.40;4.93;;;;;;;4.19;80.43;94240.63;4971565;28;20025;-76
2023/01/23 01:09:04;;;;;;;6.85;4.97;;;;;;;4.39;80.20;94267.00;5000032;28;20390;-76
2023/01/23 01:11:30;;;;;;;7.32;4.80;;;;;;;4.36;80.34;94282.50;4998159;28;20042;-77
2023/01/23 01:13:56;;;;;;;7.78;5.20;;;;;;;4.35;80.04;94265.16;4998343;28;20041;-76
2023/01/23 01:16:23;;;;;;;7.88;4.85;;;;;;;4.26;79.72;94263.00;4999156;28;20045;-76
2023/01/23 01:18:49;;;;;;;5.30;3.70;;;;;;;4.38;80.08;94283.84;4997252;28;20915;-77
2023/01/23 01:21:15;;;;;;;5.32;4.57;;;;;;;4.34;80.50;94277.53;4997606;28;20030;-75
2023/01/23 01:23:41;;;;;;;10.45;5.65;;;;;;;4.26;81.13;94272.72;4998277;28;20069;-76
2023/01/23 01:26:07;;;;;;;6.28;4.20;;;;;;;4.34;80.68;94284.63;4996488;28;20513;-75
2023/01/23 01:28:34;;;;;;;6.88;4.50;;;;;;;4.50;80.01;94297.53;4999276;28;20056;-76
2023/01/23 01:31:09;;;;;;;6.13;4.28;;;;;;;4.45;80.25;94294.13;4997555;28;20088;-77
2023/01/23 01:33:36;;;;;;;;;;;;;;;4.58;80.01;94304.13;4998019;28;20394;-76
2023/01/23 01:36:01;;;;;;;5.00;3.80;;;;;;;4.39;79.68;94274.09;4998779;28;19931;-77
2023/01/23 01:38:27;;;;;;;9.25;4.60;;;;;;;4.63;79.46;94309.41;4997950;28;20037;-76
2023/01/23 01:40:52;;;;;;;6.50;4.40;;;;;;;4.44;79.63;94287.28;4998234;28;20266;-76
2023/01/23 01:43:21;;;;;;;4.97;4.40;;;;;;;4.63;79.39;94304.13;4998706;28;20052;-77
2023/01/23 01:46:18;;;;;;;5.75;3.78;;;;;;;4.67;78.89;94307.81;4997023;28;20022;-76
2023/01/23 01:49:02;;;;;;;5.25;3.80;;;;;;;4.82;78.37;94302.53;4991417;28;20217;-76
2023/01/23 01:51:58;;;;;;;13.55;4.97;;;;;;;4.82;77.76;94302.53;4999428;28;20033;-76
2023/01/23 01:54:47;;;;;;;5.65;4.22;;;;;;;4.83;77.67;94304.13;4984587;28;20054;-76
2023/01/23 01:57:18;;;;;;;4.78;4.15;;;;;;;4.84;78.55;94300.44;4996935;28;20088;-77
2023/01/23 02:00:05;;;;;;;5.68;4.40;;;;;;;4.92;78.07;94310.44;5000233;28;20703;-76
2023/01/23 02:02:37;;;;;;;5.97;5.07;;;;;;;4.83;78.63;94306.78;4995670;28;20057;-76
2023/01/23 02:05:15;;;;;;;6.13;5.15;;;;;;;4.56;79.52;94287.78;4979284;28;20038;-76
2023/01/23 02:07:48;;;;;;;8.32;5.03;;;;;;;4.76;79.59;94303.59;4998045;28;20045;-76
2023/01/23 02:10:15;;;;;;;10.73;4.47;;;;;;;4.76;80.05;94319.41;4998356;28;20048;-76
2023/01/23 02:12:45;;;;;;;7.32;4.80;;;;;;;4.78;80.34;94305.97;4999060;28;20029;-76
2023/01/23 02:15:10;;;;;;;8.75;5.50;;;;;;;4.73;80.82;94313.88;4996591;28;20025;-77
2023/01/23 02:17:37;;;;;;;10.50;5.32;;;;;;;4.84;80.90;94324.16;5001170;28;20095;-76
2023/01/23 02:20:10;;;;;;;10.55;5.55;;;;;;;4.66;81.74;94324.69;5000523;28;20033;-76
2023/01/23 02:22:45;;;;;;;5.43;4.40;;;;;;;4.75;82.04;94311.78;5001206;28;20042;-76
2023/01/23 02:25:35;;;;;;;10.13;6.07;;;;;;;4.68;81.93;94317.31;5000556;28;20449;-78
2023/01/23 02:28:01;;;;;;;10.70;5.70;;;;;;;4.55;82.46;94317.84;4974345;28;20036;-77
2023/01/23 02:30:27;;;;;;;8.02;5.20;;;;;;;4.59;83.13;94318.91;5002471;28;20030;-76
2023/01/23 02:32:52;;;;;;;6.65;5.20;;;;;;;4.35;83.46;94299.38;4994057;28;20144;-76
2023/01/23 02:35:25;;;;;;;9.32;5.55;;;;;;;4.45;83.57;94297.56;4997904;28;20249;-76
2023/01/23 02:37:53;;;;;;;5.65;4.88;;;;;;;4.48;83.90;94323.38;4996059;28;20030;-76
2023/01/23 02:40:28;;;;;;;8.35;5.65;;;;;;;4.19;83.98;94288.81;5000197;28;20029;-77
2023/01/23 02:42:54;;;;;;;9.85;5.35;;;;;;;4.09;84.79;94299.31;4997664;28;20041;-76
2023/01/23 02:45:19;;;;;;;8.90;5.40;;;;;;;4.08;84.77;94297.72;5000052;28;20022;-76
2023/01/23 02:47:45;;;;;;;9.15;5.40;;;;;;;4.21;85.42;94309.59;5000686;28;20034;-77
2023/01/23 02:50:10;;;;;;;7.93;5.30;;;;;;;4.25;85.55;94319.34;4998649;28;21137;-76
2023/01/23 02:52:35;;;;;;;7.70;5.00;;;;;;;4.08;85.75;94308.25;4982507;28;20474;-77
2023/01/23 02:55:01;;;;;;;8.05;4.93;;;;;;;3.73;85.86;94266.06;4990973;28;20141;-75
2023/01/23 02:57:26;;;;;;;7.05;5.13;;;;;;;3.59;86.12;94247.34;4998937;28;20092;-76
2023/01/23 03:02:37;;;;;;;6.70;4.78;;;;;;;3.86;85.92;94284.00;5000997;28;20052;-75
2023/01/23 03:05:02;;;;;;;8.20;4.85;;;;;;;3.96;86.32;94314.81;5000803;28;20225;-76
2023/01/23 03:07:28;;;;;;;5.05;3.80;;;;;;;3.94;86.57;94312.44;4998647;28;20034;-75
2023/01/23 03:09:53;;;;;;;5.57;4.03;;;;;;;3.87;86.98;94306.59;4998655;28;20034;-75
2023/01/23 03:12:18;;;;;;;7.32;4.97;;;;;;;3.74;87.17;94300.00;4998554;28;20026;-76
2023/01/23 03:14:44;;;;;;;6.90;4.13;;;;;;;3.82;86.51;94306.59;4998981;28;20033;-74
2023/01/23 03:17:09;;;;;;;6.65;4.43;;;;;;;3.95;86.78;94323.75;4998232;28;20610;-75
2023/01/23 03:19:35;;;;;;;7.15;4.93;;;;;;;3.85;87.26;94324.50;4999746;28;20042;-74
2023/01/23 03:22:00;;;;;;;6.50;5.13;;;;;;;3.94;86.79;94322.97;4997110;28;20210;-75
2023/01/23 03:24:26;;;;;;;6.13;4.50;;;;;;;3.89;86.52;94314.25;4999456;28;20105;-75
2023/01/23 03:26:51;;;;;;;5.82;4.22;;;;;;;3.69;86.38;94291.31;4999293;28;20498;-75
2023/01/23 03:32:04;;;;;;;7.80;4.65;;;;;;;3.56;86.41;94265.50;5000566;28;20045;-77
2023/01/23 03:34:30;;;;;;;6.57;4.85;;;;;;;3.54;87.08;94281.53;4999023;28;20037;-75
2023/01/23 03:36:57;;;;;;;4.97;3.78;;;;;;;3.84;86.96;94313.19;4999708;28;20045;-74
2023/01/23 03:42:07;;;;;;;5.05;4.43;;;;;;;3.65;86.53;94262.09;5000379;28;20088;-76
2023/01/23 03:44:32;;;;;;;5.88;4.20;;;;;;;3.98;85.88;94310.06;5000108;28;20049;-74
2023/01/23 03:46:57;;;;;;;7.00;4.72;;;;;;;3.89;85.27;94286.09;4999082;28;20552;-74
2023/01/23 03:49:23;;;;;;;6.65;4.32;;;;;;;3.79;85.34;94283.44;5000673;28;20034;-75
2023/01/23 03:51:48;;;;;;;7.03;4.53;;;;;;;3.81;85.85;94286.63;4999174;28;20036;-75
2023/01/23 03:54:14;;;;;;;6.57;4.93;;;;;;;3.82;86.00;94285.53;5000855;28;20556;-74
2023/01/23 03:56:41;;;;;;;6.43;4.80;;;;;;;3.91;86.10;94306.91;4992476;28;20041;-74
2023/01/23 03:59:07;;;;;;;7.65;6.25;;;;;;;3.82;86.66;94309.22;4981069;28;20038;-75
2023/01/23 04:01:32;;;;;;;7.53;5.85;;;;;;;3.43;87.22;94274.63;4998989;28;20486;-75
2023/01/23 04:03:57;;;;;;;7.38;5.65;;;;;;;3.56;88.19;94302.31;5000006;28;20042;-75
2023/01/23 04:06:23;;;;;;;6.50;5.40;;;;;;;3.69;88.04;94310.50;5000646;28;20033;-75
2023/01/23 04:08:48;;;;;;;7.38;5.90;;;;;;;3.62;88.57;94319.69;4999177;28;20799;-75
2023/01/23 04:11:14;;;;;;;11.95;7.32;;;;;;;3.52;88.83;94314.41;4999930;28;20038;-76
2023/01/23 04:13:39;;;;;;;12.07;7.00;;;;;;;3.65;89.05;94334.97;4998522;28;20085;-75
2023/01/23 04:16:05;;;;;;;12.23;7.20;;;;;;;3.63;88.88;94316.00;5000412;28;20564;-75
2023/01/23 04:18:32;;;;;;;8.32;6.22;;;;;;;3.62;89.17;94330.22;4998531;28;20026;-74
2023/01/23 04:20:58;;;;;;;8.10;6.32;;;;;;;3.51;89.97;94332.00;4999423;28;20060;-75
2023/01/23 04:23:24;;;;;;;9.00;7.00;;;;;;;3.45;90.36;94334.84;4999173;28;20025;-74
2023/01/23 04:25:51;;;;;;;10.43;6.70;;;;;;;3.52;90.12;94330.19;4999246;28;20076;-75
2023/01/23 04:28:17;;;;;;;9.00;7.38;;;;;;;3.17;89.98;94279.00;4997952;28;20073;-74
2023/01/23 04:30:43;;;;;;;8.32;5.40;;;;;;;3.25;90.18;94315.31;5000158;28;20029;-74
2023/01/23 04:33:08;;;;;;;9.13;5.60;;;;;;;3.18;89.92;94285.84;4998337;28;20029;-75
2023/01/23 04:35:33;;;;;;;6.82;5.43;;;;;;;3.41;89.84;94310.94;4999344;28;20069;-74
2023/01/23 04:37:59;;;;;;;9.82;6.47;;;;;;;3.46;89.54;94337.25;4996928;28;20486;-74
2023/01/23 04:40:25;;;;;;;6.28;5.15;;;;;;;3.47;89.76;94327.53;5000250;28;20044;-74
2023/01/23 04:42:50;;;;;;;7.68;5.25;;;;;;;3.37;89.56;94317.75;4997403;28;20037;-74
2023/01/23 04:45:16;;;;;;;5.38;4.65;;;;;;;3.13;89.69;94290.28;5000833;28;20045;-75
2023/01/23 04:47:41;;;;;;;7.07;5.22;;;;;;;3.49;89.11;94336.72;4997459;28;20750;-75
2023/01/23 04:50:07;;;;;;;6.18;4.88;;;;;;;3.52;88.91;94338.84;4998517;28;20049;-74
2023/01/23 04:52:32;;;;;;;6.10;4.78;;;;;;;3.42;88.72;94320.41;4996907;28;20576;-73
2023/01/23 04:54:58;;;;;;;5.30;4.65;;;;;;;3.38;88.65;94328.00;4998291;28;20041;-75
2023/01/23 04:57:23;;;;;;;8.30;4.70;;;;;;;3.33;88.45;94312.19;4992530;28;20096;-75
2023/01/23 04:59:49;;;;;;;9.15;4.20;;;;;;;3.46;88.58;94331.19;4997301;28;20048;-75
2023/01/23 05:02:14;;;;;;;8.18;5.13;;;;;;;3.47;88.74;94338.03;4997144;28;20049;-76
2023/01/23 05:04:40;;;;;;;4.78;4.28;;;;;;;3.28;89.16;94317.41;4998875;28;20426;-74
2023/01/23 05:07:05;;;;;;;6.43;5.80;;;;;;;3.34;89.19;94320.88;4998137;28;21067;-74
2023/01/23 05:09:31;;;;;;;7.07;5.45;;;;;;;3.32;89.56;94320.34;4998872;28;20029;-74
2023/01/23 05:11:56;;;;;;;7.90;6.07;;;;;;;3.32;89.98;94326.41;4997638;28;20542;-77
2023/01/23 05:14:24;;;;;;;6.38;5.53;;;;;;;3.35;90.29;94344.28;4997760;28;20048;-75
2023/01/23 05:16:49;;;;;;;9.00;6.25;;;;;;;3.37;90.06;94336.94;4996750;28;20061;-75
2023/01/23 05:19:15;;;;;;;9.02;6.38;;;;;;;3.32;90.54;94352.69;4999983;28;20057;-75
2023/01/23 05:21:40;;;;;;;7.70;5.40;;;;;;;3.23;90.43;94327.91;4998648;28;20065;-75
2023/01/23 05:24:06;;;;;;;10.43;6.32;;;;;;;3.22;90.40;94334.22;5000608;28;20596;-75
2023/01/23 05:26:33;;;;;;;7.75;5.90;;;;;;;3.33;90.03;94353.50;4997081;28;20622;-75
2023/01/23 05:28:59;;;;;;;10.90;7.20;;;;;;;3.33;90.23;94359.50;4997575;28;20069;-74
2023/01/23 05:31:25;;;;;;;9.02;6.65;;;;;;;3.32;90.18;94363.22;4998054;28;20128;-75
2023/01/23 05:33:50;;;;;;;8.48;5.80;;;;;;;3.50;89.57;94363.81;4998418;28;20059;-76
2023/01/23 05:36:15;;;;;;;9.07;7.05;;;;;;;3.46;89.32;94373.25;4996305;28;20553;-75
2023/01/23 05:38:41;;;;;;;9.05;5.65;;;;;;;3.47;89.27;94366.97;4998173;28;20046;-75
2023/01/23 05:41:06;;;;;;;9.60;5.88;;;;;;;3.50;88.99;94380.38;4997742;28;20046;-75
2023/01/23 05:43:32;;;;;;;7.50;6.00;;;;;;;3.54;88.38;94376.19;4998025;28;20395;-75
2023/01/23 05:46:01;;;;;;;6.55;4.78;;;;;;;3.58;88.34;94384.38;4998632;28;20042;-75
2023/01/23 05:48:27;;;;;;;7.10;5.30;;;;;;;3.53;87.61;94374.59;5000169;28;20057;-77
2023/01/23 05:50:52;;;;;;;9.35;5.35;;;;;;;3.57;87.71;94382.81;4993502;28;20161;-76
2023/01/23 05:53:17;;;;;;;6.18;5.30;;;;;;;3.62;87.08;94396.78;4982694;28;20041;-77
2023/01/23 05:55:43;;;;;;;5.43;4.45;;;;;;;3.60;86.71;94392.81;4996018;28;20472;-76
2023/01/23 05:58:08;;;;;;;7.07;5.20;;;;;;;3.67;86.79;94414.41;4991756;28;20049;-76
2023/01/23 06:00:34;;;;;;;6.45;4.63;;;;;;;3.68;86.74;94408.09;4996075;28;20046;-75
2023/01/23 06:03:00;;;;;;;7.75;4.93;;;;;;;3.80;86.46;94409.50;4999669;28;20461;-77
2023/01/23 06:05:25;;;;;;;7.95;5.45;;;;;;;3.53;86.40;94381.69;4996910;28;20131;-75
2023/01/23 06:07:51;;;;;;;7.18;4.00;;;;;;;3.70;86.27;94416.53;4997955;28;20041;-73
2023/01/23 06:10:16;;;;;;;6.68;4.40;;;;;;;3.62;86.98;94419.66;4979916;28;20034;-75
2023/01/23 06:12:41;;;;;;;4.97;4.45;;;;;;;3.39;86.89;94387.41;4998084;28;20044;-76
2023/01/23 06:15:07;;;;;;;6.05;4.25;;;;;;;3.54;87.12;94428.78;4996277;28;20026;-77
2023/01/23 06:17:33;;;;;;;6.80;4.45;;;;;;;3.39;87.07;94405.81;4998145;28;20033;-76
2023/01/23 06:19:58;;;;;;;3.50;3.20;;;;;;;3.53;86.63;94431.66;4995260;28;20065;-76
2023/01/23 06:22:23;;;;;;;4.38;3.97;;;;;;;3.49;86.08;94420.09;4997036;28;20088;-76
2023/01/23 06:24:49;;;;;;;3.80;3.40;;;;;;;3.58;85.87;94423.81;4996349;28;20034;-76
2023/01/23 06:27:14;;;;;;;5.97;3.42;;;;;;;3.58;85.41;94434.34;4997756;28;20022;-76
2023/01/23 06:29:40;;;;;;;4.10;3.25;;;;;;;3.51;85.34;94420.63;4990407;28;20038;-75
2023/01/23 06:32:05;;;;;;;4.28;3.10;;;;;;;3.50;85.33;94425.09;4993605;28;20050;-76
2023/01/23 06:34:31;;;;;;;3.30;3.00;;;;;;;3.48;85.19;94426.41;4994033;28;20034;-75
2023/01/23 06:36:56;;;;;;;4.55;3.65;;;;;;;3.36;85.48;94400.28;4994512;28;20575;-77
2023/01/23 06:39:21;;;;;;;3.92;2.80;;;;;;;3.54;85.59;94420.91;4995910;28;20119;-76
2023/01/23 06:41:47;;;;;;;4.15;3.75;;;;;;;3.49;86.09;94425.34;4974777;28;20037;-75
2023/01/23 06:44:12;;;;;;;5.70;3.90;;;;;;;3.43;86.74;94424.50;4995638;28;20073;-76
2023/01/23 06:46:38;;;;;;;7.38;5.05;;;;;;;3.44;86.81;94438.44;4987511;28;20621;-76
2023/01/23 06:49:04;;;;;;;7.47;5.05;;;;;;;3.44;87.20;94441.09;4977373;28;20121;-76
2023/01/23 06:51:29;;;;;;;7.07;5.05;;;;;;;3.45;86.96;94421.63;4992168;28;20481;-76
2023/01/23 06:53:55;;;;;;;7.40;5.15;;;;;;;3.60;86.76;94434.88;4971550;28;20301;-76
2023/01/23 06:56:21;;;;;;;6.40;5.03;;;;;;;3.21;87.27;94403.63;4997360;28;20089;-75
2023/01/23 06:58:47;;;;;;;7.20;4.90;;;;;;;3.28;87.33;94419.94;4996838;28;20026;-76
2023/01/23 07:01:16;;;;;;;6.50;4.80;;;;;;;3.20;87.94;94438.81;4990820;28;20050;-76
2023/01/23 07:03:43;;;;;;;10.27;6.65;;;;;;;3.30;88.38;94467.81;4975909;28;20038;-76
2023/01/23 07:06:13;;;;;;;9.18;6.18;;;;;;;3.19;88.79;94450.38;4995504;28;20191;-76
2023/01/23 07:08:39;;;;;;;13.50;7.07;;;;;;;3.13;89.38;94459.28;4995491;28;20034;-76
2023/01/23 07:11:05;;;;;;;13.05;7.43;;;;;;;3.23;90.26;94480.38;4992934;28;20046;-76
2023/01/23 07:13:30;;;;;;;13.98;8.10;;;;;;;3.02;90.53;94462.88;4999020;28;20533;-77
2023/01/23 07:15:56;;;;;;;12.85;8.88;;;;;;;3.16;90.62;94473.75;5000635;28;20038;-75
2023/01/23 07:18:22;;;;;;;11.02;8.30;;;;;;;3.09;90.98;94473.94;4990624;28;20021;-76
2023/01/23 07:20:48;;;;;;;13.88;9.90;;;;;;;3.15;91.18;94493.97;4986980;28;20612;-76
2023/01/23 07:23:14;;;;;;;15.27;9.25;;;;;;;3.09;91.58;94489.72;4981145;28;20152;-76
2023/01/23 07:25:40;;;;;;;14.38;9.20;;;;;;;3.11;91.87;94492.91;4997355;28;20040;-76
2023/01/23 07:28:05;;;;;;;17.80;10.57;;;;;;;2.96;92.06;94479.63;5000463;28;20791;-76
2023/01/23 07:30:32;;;;;;;21.25;13.27;;;;;;;3.14;91.79;94508.16;4998693;28;20026;-75
2023/01/23 07:32:57;;;;;;;24.35;15.57;;;;;;;2.81;92.16;94466.34;4999973;28;20041;-76
2023/01/23 07:35:24;;;;;;;20.10;12.55;;;;;;;2.89;93.00;94500.84;4982145;28;20107;-76
2023/01/23 07:37:50;;;;;;;23.58;13.48;;;;;;;2.82;92.59;94484.50;4957481;28;20092;-76
2023/01/23 07:40:15;;;;;;;22.13;13.05;;;;;;;2.74;93.21;94468.38;4973701;28;20230;-76
2023/01/23 07:42:41;;;;;;;25.52;14.25;;;;;;;2.87;93.24;94510.00;4973806;28;20036;-76
2023/01/23 07:45:08;;;;;;;18.55;12.57;;;;;;;2.81;92.78;94487.34;4976107;28;20079;-75
2023/01/23 07:47:35;;;;;;;20.08;11.80;;;;;;;2.62;92.96;94488.75;4977467;28;20461;-76
2023/01/23 07:50:00;;;;;;;21.85;13.65;;;;;;;2.84;92.96;94486.88;4975847;28;20040;-75
2023/01/23 07:52:25;;;;;;;21.95;12.15;;;;;;;2.82;92.76;94509.97;4977015;28;20038;-77
2023/01/23 07:54:51;;;;;;;16.50;10.57;;;;;;;2.87;92.24;94510.81;4976506;28;20034;-76
2023/01/23 07:57:16;;;;;;;13.93;9.88;;;;;;;2.94;91.74;94515.84;4974284;28;20061;-77
2023/01/23 07:59:42;;;;;;;18.20;10.77;;;;;;;2.95;90.79;94491.16;4977081;28;20137;-77
2023/01/23 08:02:09;;;;;;;14.15;9.02;;;;;;;2.77;91.12;94494.94;4977266;28;20513;-77
2023/01/23 08:04:35;;;;;;;12.18;7.82;;;;;;;2.88;90.54;94506.34;4971833;28;20389;-78
2023/01/23 08:07:01;;;;;;;17.88;7.90;;;;;;;2.86;90.03;94511.84;4952909;28;20045;-77
2023/01/23 08:09:26;;;;;;;11.63;7.15;;;;;;;2.84;89.29;94513.91;4974683;28;20112;-77
2023/01/23 08:11:52;;;;;;;11.50;7.85;;;;;;;2.82;89.05;94488.94;4975320;28;20149;-77
2023/01/23 08:14:18;;;;;;;13.45;8.00;;;;;;;2.84;88.66;94513.91;4975976;28;20044;-77
2023/01/23 08:16:47;;;;;;;15.32;8.25;;;;;;;2.94;88.61;94523.72;4974796;28;20046;-76
2023/01/23 08:19:12;;;;;;;14.38;9.20;;;;;;;2.91;88.87;94535.53;4979231;28;20045;-78
2023/01/23 08:21:38;;;;;;;13.80;7.57;;;;;;;2.89;88.65;94535.00;4975353;28;20607;-77
2023/01/23 08:24:04;;;;;;;14.05;8.55;;;;;;;2.94;88.55;94550.81;4976683;28;20042;-77
2023/01/23 08:26:29;;;;;;;11.85;7.53;;;;;;;3.01;88.81;94540.09;4976774;28;20030;-78
2023/01/23 08:28:55;;;;;;;13.15;7.70;;;;;;;2.96;88.58;94548.75;4975703;28;20066;-78
2023/01/23 08:31:20;;;;;;;12.52;8.05;;;;;;;2.80;88.96;94518.09;4978352;28;20464;-77
2023/01/23 08:33:46;;;;;;;15.85;7.88;;;;;;;2.66;88.92;94503.75;4975450;28;20026;-76
2023/01/23 08:36:12;;;;;;;12.55;7.32;;;;;;;2.82;89.17;94529.16;4995751;28;20037;-77
2023/01/23 08:38:37;;;;;;;12.35;8.13;;;;;;;2.67;89.54;94528.19;4996903;28;20034;-76
2023/01/23 08:41:03;;;;;;;13.50;7.80;;;;;;;2.79;89.57;94542.00;4998630;28;20100;-77
2023/01/23 08:43:29;;;;;;;14.23;8.68;;;;;;;2.84;89.98;94560.44;4997800;28;20062;-78
2023/01/23 08:45:57;;;;;;;13.40;7.70;;;;;;;2.79;89.77;94569.03;4996726;28;20045;-77
2023/01/23 08:48:24;;;;;;;11.20;7.53;;;;;;;2.77;89.69;94563.25;4994825;28;20189;-78
2023/01/23 08:50:57;;;;;;;13.45;7.60;;;;;;;2.78;89.49;94545.66;4995915;28;20044;-77
2023/01/23 08:53:22;;;;;;;13.73;8.15;;;;;;;2.71;89.28;94550.28;4982045;28;20623;-76
2023/01/23 08:55:47;;;;;;;10.80;7.00;;;;;;;2.69;88.87;94553.19;4995709;28;20042;-77
2023/01/23 08:58:13;;;;;;;12.13;7.13;;;;;;;2.74;88.83;94549.81;4978384;28;20041;-77
2023/01/23 09:00:39;;;;;;;9.88;6.07;;;;;;;2.81;87.91;94524.94;4989305;28;20549;-76
2023/01/23 09:03:05;;;;;;;10.93;6.80;;;;;;;2.83;87.97;94537.81;4997698;28;20420;-78
2023/01/23 09:05:31;;;;;;;10.55;7.05;;;;;;;2.87;88.72;94565.19;4996203;28;20045;-77
2023/01/23 09:07:57;;;;;;;9.25;6.28;;;;;;;2.94;88.45;94566.56;4995622;28;20026;-77
2023/01/23 09:10:24;;;;;;;10.75;6.68;;;;;;;2.88;87.94;94557.06;4998964;28;20129;-78
2023/01/23 09:12:53;;;;;;;9.60;7.15;;;;;;;2.79;87.58;94560.38;4993268;28;20120;-78
2023/01/23 09:15:20;;;;;;;8.93;6.10;;;;;;;2.70;87.84;94528.47;4970224;28;20033;-76
2023/01/23 09:17:45;;;;;;;11.85;6.68;;;;;;;2.86;87.89;94558.34;4994741;28;20064;-77
2023/01/23 09:20:11;;;;;;;8.75;5.72;;;;;;;2.77;88.25;94560.63;4996253;28;20517;-77
2023/01/23 09:22:36;;;;;;;10.10;6.22;;;;;;;2.70;87.84;94559.19;4972078;28;20184;-77
2023/01/23 09:25:03;;;;;;;9.75;6.28;;;;;;;2.74;87.33;94555.06;4978192;28;20030;-77
2023/01/23 09:27:28;;;;;;;10.95;6.35;;;;;;;2.75;87.80;94559.25;4995378;28;20025;-78
2023/01/23 09:29:54;;;;;;;12.40;7.80;;;;;;;2.84;87.41;94581.47;4996899;28;20421;-76
2023/01/23 09:32:19;;;;;;;9.13;6.72;;;;;;;2.88;87.34;94578.09;4977893;28;20128;-77
2023/01/23 09:34:47;;;;;;;10.07;6.18;;;;;;;2.67;88.00;94538.69;4993072;28;20044;-76
2023/01/23 09:37:14;;;;;;;11.73;6.68;;;;;;;2.67;87.66;94544.75;4993088;28;20049;-78
2023/01/23 09:39:41;;;;;;;13.93;7.47;;;;;;;2.50;88.15;94529.03;4995760;28;20032;-76
2023/01/23 09:42:16;;;;;;;15.23;8.05;;;;;;;2.69;88.02;94547.13;4997038;28;20481;-77
2023/01/23 09:44:54;;;;;;;9.55;6.88;;;;;;;2.63;87.83;94538.41;4997023;28;20148;-77
2023/01/23 09:47:27;;;;;;;11.93;8.48;;;;;;;2.78;87.57;94564.84;4997235;28;20074;-77
2023/01/23 09:49:52;;;;;;;11.90;7.53;;;;;;;2.81;87.88;94568.78;4995197;28;20042;-77
2023/01/23 09:52:24;;;;;;;12.68;8.13;;;;;;;2.90;87.91;94562.84;4995865;28;20671;-76
2023/01/23 09:55:40;;;;;;;11.85;8.32;;;;;;;2.75;87.38;94573.19;4992594;28;20060;-76
2023/01/23 09:58:15;;;;;;;13.95;8.00;;;;;;;2.67;87.44;94576.25;4924394;28;20653;-78
2023/01/23 10:00:41;;;;;;;13.40;8.45;;;;;;;2.62;88.14;94578.81;4997330;28;20057;-77
2023/01/23 10:03:15;;;;;;;10.98;7.35;;;;;;;2.46;88.63;94569.97;4995508;28;20030;-78
2023/01/23 10:05:43;;;;;;;13.93;8.13;;;;;;;2.61;88.44;94574.59;4980057;28;20080;-77
2023/01/23 10:08:36;;;;;;;12.73;8.63;;;;;;;2.50;88.43;94570.25;4997562;28;20193;-77
2023/01/23 10:11:22;;;;;;;13.43;8.05;;;;;;;2.53;88.44;94565.34;4997360;28;20030;-78
2023/01/23 10:13:53;;;;;;;;;;;;;;;2.52;88.73;94568.19;4996390;28;20049;-76
2023/01/23 10:16:37;;;;;;;15.95;8.98;;;;;;;2.51;88.61;94556.91;4997116;28;19968;-76
2023/01/23 10:19:14;;;;;;;12.70;8.55;;;;;;;2.39;88.75;94564.13;4976066;28;20029;-77
2023/01/23 10:21:57;;;;;;;18.10;9.68;;;;;;;2.62;88.57;94551.78;4989625;28;20026;-77
2023/01/23 10:24:43;;;;;;;13.75;8.52;;;;;;;2.46;88.25;94538.47;4972227;28;20830;-76
2023/01/23 10:27:22;;;;;;;15.93;9.38;;;;;;;2.60;87.85;94564.38;4971817;28;20088;-77
2023/01/23 10:29:56;;;;;;;13.40;8.32;;;;;;;2.59;87.59;94562.78;4998382;28;20163;-78
2023/01/23 10:32:28;;;;;;;12.63;7.95;;;;;;;2.57;87.65;94538.56;4975446;28;20528;-77
2023/01/23 10:35:01;;;;;;;13.02;9.27;;;;;;;2.48;88.30;94546.91;4995234;28;20060;-76
2023/01/23 10:37:45;;;;;;;15.18;9.80;;;;;;;2.61;88.60;94558.06;4993539;28;20033;-78
2023/01/23 10:40:13;;;;;;;16.60;9.63;;;;;;;2.37;89.05;94534.69;4999062;28;20038;-77
2023/01/23 10:42:38;;;;;;;21.98;11.15;;;;;;;2.47;89.29;94555.81;4999916;28;20802;-77
2023/01/23 10:45:05;;;;;;;16.67;11.68;;;;;;;2.34;89.11;94523.88;4999121;28;20030;-77
2023/01/23 10:47:47;;;;;;;19.20;14.82;;;;;;;2.48;89.49;94541.63;4999410;28;20073;-77
2023/01/23 10:50:13;;;;;;;17.55;10.52;;;;;;;2.63;88.99;94546.28;4996599;28;20137;-77
2023/01/23 10:52:42;;;;;;;14.85;8.73;;;;;;;2.53;88.68;94538.28;4996438;28;20037;-77
2023/01/23 10:55:29;;;;;;;14.57;9.95;;;;;;;2.56;88.56;94548.28;4999612;28;20045;-75
2023/01/23 10:58:01;;;;;;;19.65;11.18;;;;;;;2.66;88.67;94558.09;5001787;28;20124;-76
2023/01/23 11:00:35;;;;;;;17.02;10.05;;;;;;;2.68;88.12;94561.31;4996834;28;20168;-76
2023/01/23 11:03:20;;;;;;;15.75;12.27;;;;;;;2.82;88.72;94542.28;4975915;28;20046;-76
2023/01/23 11:05:59;;;;;;;16.90;11.43;;;;;;;2.78;87.73;94545.66;4979947;28;20048;-76
2023/01/23 11:08:26;;;;;;;21.08;11.65;;;;;;;2.68;87.99;94556.03;4969952;28;20489;-79
2023/01/23 11:10:52;;;;;;;17.63;11.07;;;;;;;2.42;88.38;94518.97;4997056;28;20037;-76
2023/01/23 11:13:29;;;;;;;18.13;11.80;;;;;;;2.58;88.27;94529.66;5003791;28;20501;-76
2023/01/23 11:15:55;;;;;;;15.82;10.55;;;;;;;2.68;88.14;94561.31;4998608;28;20056;-75
2023/01/23 11:18:31;;;;;;;16.45;11.60;;;;;;;2.62;87.98;94559.66;4999778;28;20061;-76
2023/01/23 11:20:58;;;;;;;14.88;10.93;;;;;;;2.61;88.06;94565.94;4997143;28;20033;-77
2023/01/23 11:23:24;;;;;;;20.90;12.13;;;;;;;2.47;88.52;94545.31;4975290;28;20535;-76
2023/01/23 11:25:51;;;;;;;19.88;11.88;;;;;;;2.51;89.29;94542.97;4997802;28;20593;-78
2023/01/23 11:28:23;;;;;;;15.93;11.18;;;;;;;2.60;88.58;94559.13;5000454;28;20398;-76
2023/01/23 11:31:00;;;;;;;14.90;10.32;;;;;;;2.63;88.82;94563.88;4996697;28;20055;-77
2023/01/23 11:33:40;;;;;;;16.25;10.52;;;;;;;2.70;88.64;94554.75;4973210;28;20068;-77
2023/01/23 11:36:18;;;;;;;29.02;12.90;;;;;;;2.70;89.25;94549.50;4996304;28;20042;-77
2023/01/23 11:38:48;;;;;;;19.58;11.75;;;;;;;2.65;89.77;94565.19;4988959;28;20046;-76
2023/01/23 11:41:13;;;;;;;17.42;11.65;;;;;;;2.60;89.49;94554.63;4996249;28;20517;-76
2023/01/23 11:43:40;;;;;;;17.90;11.48;;;;;;;2.64;88.94;94553.13;4983063;28;20042;-77
2023/01/23 11:46:39;;;;;;;16.25;10.32;;;;;;;2.65;88.87;94559.16;4997809;28;20720;-76
2023/01/23 11:49:18;;;;;;;16.00;11.65;;;;;;;2.64;89.80;94555.75;4967347;28;20433;-76